Belevo, Russia
Current Conditions -  °F | °C
As of 3:30 AM on Saturday 01 Nov 2014 (Local Time) from UNEE Reporting Station
Overcast Overcast  
Wind Chill: 23°   Ceiling: 400
Heat Index: 32°   Visibility: 6mi
Dew Point: 32°   Wind: 11mph
Humidity: 100%   Direction: 190°S
Pressure: 30.24"   Gusts: NA
Location:  54.42°N, 86.3°E
Report Text: UNEE 312030Z 19005MPS 9999 OVC004CB 00/00 Q1024 NOSIG RMKQFE745 23451035
Loading
Personal Weather Stations






























Interactive Weather Map
Tropical Storm Tracking
New forecast layout! Learn more

10-Day Weather Forecast

Advertisements
Track Severe Weather on mobile